sensor_id;sensor_type;location;lat;lon;timestamp;P1;durP1;ratioP1;P2;durP2;ratioP2
11006;SDS011;8186;57.652;11.968;2024-01-30T00:00:30;37.20;;;15.73;;
11006;SDS011;8186;57.652;11.968;2024-01-30T00:02:57;41.90;;;16.10;;
11006;SDS011;8186;57.652;11.968;2024-01-30T00:05:25;38.10;;;15.00;;
11006;SDS011;8186;57.652;11.968;2024-01-30T00:07:52;44.53;;;17.13;;
11006;SDS011;8186;57.652;11.968;2024-01-30T00:10:18;41.40;;;15.93;;
11006;SDS011;8186;57.652;11.968;2024-01-30T00:12:45;39.27;;;15.87;;
11006;SDS011;8186;57.652;11.968;2024-01-30T00:15:12;41.13;;;15.40;;
11006;SDS011;8186;57.652;11.968;2024-01-30T00:17:40;44.40;;;16.20;;
11006;SDS011;8186;57.652;11.968;2024-01-30T00:20:07;37.47;;;15.70;;
11006;SDS011;8186;57.652;11.968;2024-01-30T00:22:36;42.23;;;15.87;;
11006;SDS011;8186;57.652;11.968;2024-01-30T00:25:03;43.13;;;15.97;;
11006;SDS011;8186;57.652;11.968;2024-01-30T00:27:30;40.33;;;14.83;;
11006;SDS011;8186;57.652;11.968;2024-01-30T00:29:57;42.70;;;16.07;;
11006;SDS011;8186;57.652;11.968;2024-01-30T00:32:23;38.60;;;16.13;;
11006;SDS011;8186;57.652;11.968;2024-01-30T00:34:50;41.73;;;16.13;;
11006;SDS011;8186;57.652;11.968;2024-01-30T00:37:17;45.90;;;17.23;;
11006;SDS011;8186;57.652;11.968;2024-01-30T00:39:45;42.13;;;16.97;;
11006;SDS011;8186;57.652;11.968;2024-01-30T00:42:12;40.40;;;15.90;;
11006;SDS011;8186;57.652;11.968;2024-01-30T00:44:39;39.10;;;16.37;;
11006;SDS011;8186;57.652;11.968;2024-01-30T00:47:06;38.83;;;15.40;;
11006;SDS011;8186;57.652;11.968;2024-01-30T00:49:33;37.53;;;14.50;;
11006;SDS011;8186;57.652;11.968;2024-01-30T00:51:59;38.17;;;14.73;;
11006;SDS011;8186;57.652;11.968;2024-01-30T00:54:26;33.57;;;14.37;;
11006;SDS011;8186;57.652;11.968;2024-01-30T00:56:55;35.53;;;14.23;;
11006;SDS011;8186;57.652;11.968;2024-01-30T00:59:22;32.40;;;14.53;;
11006;SDS011;8186;57.652;11.968;2024-01-30T01:01:48;35.90;;;13.90;;
11006;SDS011;8186;57.652;11.968;2024-01-30T01:04:15;28.20;;;12.70;;
11006;SDS011;8186;57.652;11.968;2024-01-30T01:06:42;25.13;;;12.07;;
11006;SDS011;8186;57.652;11.968;2024-01-30T01:09:10;24.20;;;12.13;;
11006;SDS011;8186;57.652;11.968;2024-01-30T01:11:37;21.40;;;11.57;;
11006;SDS011;8186;57.652;11.968;2024-01-30T01:14:05;26.90;;;12.07;;
11006;SDS011;8186;57.652;11.968;2024-01-30T01:16:32;25.87;;;12.77;;
11006;SDS011;8186;57.652;11.968;2024-01-30T01:18:59;25.10;;;13.23;;
11006;SDS011;8186;57.652;11.968;2024-01-30T01:21:26;24.73;;;12.83;;
11006;SDS011;8186;57.652;11.968;2024-01-30T01:23:53;24.90;;;12.80;;
11006;SDS011;8186;57.652;11.968;2024-01-30T01:26:20;23.50;;;11.77;;
11006;SDS011;8186;57.652;11.968;2024-01-30T01:28:47;24.80;;;12.23;;
11006;SDS011;8186;57.652;11.968;2024-01-30T01:31:15;23.33;;;12.70;;
11006;SDS011;8186;57.652;11.968;2024-01-30T01:33:43;23.10;;;11.77;;
11006;SDS011;8186;57.652;11.968;2024-01-30T01:36:09;25.27;;;12.23;;
11006;SDS011;8186;57.652;11.968;2024-01-30T01:38:36;27.17;;;12.90;;
11006;SDS011;8186;57.652;11.968;2024-01-30T01:41:03;22.73;;;12.10;;
11006;SDS011;8186;57.652;11.968;2024-01-30T01:43:30;23.67;;;11.33;;
11006;SDS011;8186;57.652;11.968;2024-01-30T01:45:57;23.13;;;11.80;;
11006;SDS011;8186;57.652;11.968;2024-01-30T01:48:26;23.53;;;11.93;;
11006;SDS011;8186;57.652;11.968;2024-01-30T01:50:53;20.10;;;11.10;;
11006;SDS011;8186;57.652;11.968;2024-01-30T01:53:20;20.93;;;11.10;;
11006;SDS011;8186;57.652;11.968;2024-01-30T01:55:46;20.10;;;11.20;;
11006;SDS011;8186;57.652;11.968;2024-01-30T01:58:14;21.87;;;11.00;;
11006;SDS011;8186;57.652;11.968;2024-01-30T02:00:41;20.77;;;11.50;;
11006;SDS011;8186;57.652;11.968;2024-01-30T02:03:08;22.23;;;11.10;;
11006;SDS011;8186;57.652;11.968;2024-01-30T02:05:38;21.80;;;11.57;;
11006;SDS011;8186;57.652;11.968;2024-01-30T02:08:06;19.80;;;10.23;;
11006;SDS011;8186;57.652;11.968;2024-01-30T02:10:33;23.17;;;11.23;;
11006;SDS011;8186;57.652;11.968;2024-01-30T02:13:00;21.13;;;10.80;;
11006;SDS011;8186;57.652;11.968;2024-01-30T02:15:27;16.60;;;9.97;;
11006;SDS011;8186;57.652;11.968;2024-01-30T02:17:54;18.57;;;10.33;;
11006;SDS011;8186;57.652;11.968;2024-01-30T02:20:21;16.43;;;9.70;;
11006;SDS011;8186;57.652;11.968;2024-01-30T02:22:50;19.20;;;10.33;;
11006;SDS011;8186;57.652;11.968;2024-01-30T02:25:18;17.00;;;10.37;;
11006;SDS011;8186;57.652;11.968;2024-01-30T02:27:45;17.17;;;10.27;;
11006;SDS011;8186;57.652;11.968;2024-01-30T02:30:12;15.57;;;9.73;;
11006;SDS011;8186;57.652;11.968;2024-01-30T02:32:39;17.50;;;9.87;;
11006;SDS011;8186;57.652;11.968;2024-01-30T02:35:06;17.57;;;10.23;;
11006;SDS011;8186;57.652;11.968;2024-01-30T02:37:33;16.97;;;10.07;;
11006;SDS011;8186;57.652;11.968;2024-01-30T02:40:01;15.93;;;9.77;;
11006;SDS011;8186;57.652;11.968;2024-01-30T02:42:28;17.53;;;10.53;;
11006;SDS011;8186;57.652;11.968;2024-01-30T02:44:55;15.10;;;9.20;;
11006;SDS011;8186;57.652;11.968;2024-01-30T02:47:21;14.97;;;9.57;;
11006;SDS011;8186;57.652;11.968;2024-01-30T02:49:48;14.43;;;9.80;;
11006;SDS011;8186;57.652;11.968;2024-01-30T02:52:15;18.73;;;9.90;;
11006;SDS011;8186;57.652;11.968;2024-01-30T02:54:42;21.10;;;10.60;;
11006;SDS011;8186;57.652;11.968;2024-01-30T02:57:10;16.50;;;9.90;;
11006;SDS011;8186;57.652;11.968;2024-01-30T02:59:37;19.00;;;10.67;;
11006;SDS011;8186;57.652;11.968;2024-01-30T03:02:04;16.17;;;10.40;;
11006;SDS011;8186;57.652;11.968;2024-01-30T03:04:31;14.87;;;9.23;;
11006;SDS011;8186;57.652;11.968;2024-01-30T03:06:58;17.20;;;10.17;;
11006;SDS011;8186;57.652;11.968;2024-01-30T03:09:24;17.73;;;10.03;;
11006;SDS011;8186;57.652;11.968;2024-01-30T03:11:51;15.60;;;9.23;;
11006;SDS011;8186;57.652;11.968;2024-01-30T03:14:19;18.10;;;10.33;;
11006;SDS011;8186;57.652;11.968;2024-01-30T03:16:46;15.00;;;9.43;;
11006;SDS011;8186;57.652;11.968;2024-01-30T03:19:13;15.83;;;9.67;;
11006;SDS011;8186;57.652;11.968;2024-01-30T03:21:40;15.93;;;9.43;;
11006;SDS011;8186;57.652;11.968;2024-01-30T03:24:07;15.13;;;9.40;;
11006;SDS011;8186;57.652;11.968;2024-01-30T03:26:34;15.93;;;9.73;;
11006;SDS011;8186;57.652;11.968;2024-01-30T03:29:01;14.93;;;9.67;;
11006;SDS011;8186;57.652;11.968;2024-01-30T03:31:29;15.30;;;10.17;;
11006;SDS011;8186;57.652;11.968;2024-01-30T03:33:56;17.43;;;10.53;;
11006;SDS011;8186;57.652;11.968;2024-01-30T03:36:23;14.47;;;9.23;;
11006;SDS011;8186;57.652;11.968;2024-01-30T03:38:50;17.00;;;10.07;;
11006;SDS011;8186;57.652;11.968;2024-01-30T03:41:16;15.47;;;9.53;;
11006;SDS011;8186;57.652;11.968;2024-01-30T03:43:43;17.70;;;10.23;;
11006;SDS011;8186;57.652;11.968;2024-01-30T03:46:11;16.53;;;9.73;;
11006;SDS011;8186;57.652;11.968;2024-01-30T03:48:40;18.00;;;10.77;;
11006;SDS011;8186;57.652;11.968;2024-01-30T03:51:06;16.77;;;9.73;;
11006;SDS011;8186;57.652;11.968;2024-01-30T03:53:33;15.47;;;8.50;;
11006;SDS011;8186;57.652;11.968;2024-01-30T03:56:00;16.40;;;10.00;;
11006;SDS011;8186;57.652;11.968;2024-01-30T03:58:28;14.57;;;9.20;;
11006;SDS011;8186;57.652;11.968;2024-01-30T04:00:55;17.43;;;10.10;;
11006;SDS011;8186;57.652;11.968;2024-01-30T04:03:21;15.83;;;10.07;;
11006;SDS011;8186;57.652;11.968;2024-01-30T04:05:50;16.30;;;10.50;;
11006;SDS011;8186;57.652;11.968;2024-01-30T04:08:17;18.03;;;10.30;;
11006;SDS011;8186;57.652;11.968;2024-01-30T04:10:44;16.90;;;9.97;;
11006;SDS011;8186;57.652;11.968;2024-01-30T04:13:12;19.43;;;10.13;;
11006;SDS011;8186;57.652;11.968;2024-01-30T04:15:39;18.27;;;9.87;;
11006;SDS011;8186;57.652;11.968;2024-01-30T04:18:06;20.57;;;11.33;;
11006;SDS011;8186;57.652;11.968;2024-01-30T04:20:33;22.20;;;11.27;;
11006;SDS011;8186;57.652;11.968;2024-01-30T04:23:01;21.70;;;11.03;;
11006;SDS011;8186;57.652;11.968;2024-01-30T04:25:27;21.00;;;11.37;;
11006;SDS011;8186;57.652;11.968;2024-01-30T04:27:54;20.27;;;11.33;;
11006;SDS011;8186;57.652;11.968;2024-01-30T04:30:21;22.10;;;11.77;;
11006;SDS011;8186;57.652;11.968;2024-01-30T04:32:48;23.47;;;12.23;;
11006;SDS011;8186;57.652;11.968;2024-01-30T04:35:15;25.67;;;12.27;;
11006;SDS011;8186;57.652;11.968;2024-01-30T04:37:42;23.50;;;11.63;;
11006;SDS011;8186;57.652;11.968;2024-01-30T04:40:10;19.00;;;10.93;;
11006;SDS011;8186;57.652;11.968;2024-01-30T04:42:37;22.50;;;12.03;;
11006;SDS011;8186;57.652;11.968;2024-01-30T04:45:05;18.07;;;11.33;;
11006;SDS011;8186;57.652;11.968;2024-01-30T04:47:32;18.57;;;10.50;;
11006;SDS011;8186;57.652;11.968;2024-01-30T04:49:59;18.90;;;10.53;;
11006;SDS011;8186;57.652;11.968;2024-01-30T04:52:26;21.10;;;12.10;;
11006;SDS011;8186;57.652;11.968;2024-01-30T04:54:53;22.03;;;11.00;;
11006;SDS011;8186;57.652;11.968;2024-01-30T04:57:21;17.57;;;9.77;;
11006;SDS011;8186;57.652;11.968;2024-01-30T04:59:48;17.30;;;10.27;;
11006;SDS011;8186;57.652;11.968;2024-01-30T05:02:15;18.17;;;9.13;;
11006;SDS011;8186;57.652;11.968;2024-01-30T05:04:42;13.27;;;8.30;;
11006;SDS011;8186;57.652;11.968;2024-01-30T05:07:08;13.73;;;8.60;;
11006;SDS011;8186;57.652;11.968;2024-01-30T05:09:35;14.20;;;8.30;;
11006;SDS011;8186;57.652;11.968;2024-01-30T05:12:02;12.93;;;8.17;;
11006;SDS011;8186;57.652;11.968;2024-01-30T05:14:31;15.13;;;8.63;;
11006;SDS011;8186;57.652;11.968;2024-01-30T05:16:58;13.60;;;8.40;;
11006;SDS011;8186;57.652;11.968;2024-01-30T05:19:24;13.27;;;8.33;;
11006;SDS011;8186;57.652;11.968;2024-01-30T05:21:51;12.47;;;7.60;;
11006;SDS011;8186;57.652;11.968;2024-01-30T05:24:18;14.33;;;9.37;;
11006;SDS011;8186;57.652;11.968;2024-01-30T05:26:45;13.73;;;7.43;;
11006;SDS011;8186;57.652;11.968;2024-01-30T05:29:13;13.83;;;7.77;;
11006;SDS011;8186;57.652;11.968;2024-01-30T05:31:41;12.47;;;7.80;;
11006;SDS011;8186;57.652;11.968;2024-01-30T05:34:08;11.93;;;7.33;;
11006;SDS011;8186;57.652;11.968;2024-01-30T05:36:35;10.80;;;7.67;;
11006;SDS011;8186;57.652;11.968;2024-01-30T05:39:02;14.20;;;8.00;;
11006;SDS011;8186;57.652;11.968;2024-01-30T05:41:30;11.83;;;7.47;;
11006;SDS011;8186;57.652;11.968;2024-01-30T05:43:57;13.27;;;8.10;;
11006;SDS011;8186;57.652;11.968;2024-01-30T05:46:23;11.87;;;7.03;;
11006;SDS011;8186;57.652;11.968;2024-01-30T05:48:52;13.17;;;7.80;;
11006;SDS011;8186;57.652;11.968;2024-01-30T05:51:19;12.77;;;7.93;;
11006;SDS011;8186;57.652;11.968;2024-01-30T05:53:45;11.90;;;7.97;;
11006;SDS011;8186;57.652;11.968;2024-01-30T05:56:12;11.23;;;7.23;;
11006;SDS011;8186;57.652;11.968;2024-01-30T05:58:39;15.23;;;8.30;;
11006;SDS011;8186;57.652;11.968;2024-01-30T06:01:06;13.60;;;8.97;;
11006;SDS011;8186;57.652;11.968;2024-01-30T06:03:34;16.93;;;9.17;;
11006;SDS011;8186;57.652;11.968;2024-01-30T06:06:02;17.23;;;9.00;;
11006;SDS011;8186;57.652;11.968;2024-01-30T06:08:29;12.57;;;7.73;;
11006;SDS011;8186;57.652;11.968;2024-01-30T06:10:56;15.77;;;8.47;;
11006;SDS011;8186;57.652;11.968;2024-01-30T06:13:23;17.63;;;8.90;;
11006;SDS011;8186;57.652;11.968;2024-01-30T06:15:49;14.10;;;8.67;;
11006;SDS011;8186;57.652;11.968;2024-01-30T06:18:16;16.77;;;8.90;;
11006;SDS011;8186;57.652;11.968;2024-01-30T06:20:43;17.83;;;9.37;;
11006;SDS011;8186;57.652;11.968;2024-01-30T06:23:12;14.93;;;9.10;;
11006;SDS011;8186;57.652;11.968;2024-01-30T06:25:39;18.97;;;9.53;;
11006;SDS011;8186;57.652;11.968;2024-01-30T06:28:06;15.70;;;9.33;;
11006;SDS011;8186;57.652;11.968;2024-01-30T06:30:33;14.73;;;8.70;;
11006;SDS011;8186;57.652;11.968;2024-01-30T06:33:00;17.40;;;9.47;;
11006;SDS011;8186;57.652;11.968;2024-01-30T06:35:27;16.87;;;9.53;;
11006;SDS011;8186;57.652;11.968;2024-01-30T06:37:54;15.00;;;9.73;;
11006;SDS011;8186;57.652;11.968;2024-01-30T06:40:22;15.33;;;9.67;;
11006;SDS011;8186;57.652;11.968;2024-01-30T06:42:49;16.37;;;9.13;;
11006;SDS011;8186;57.652;11.968;2024-01-30T06:45:16;16.33;;;9.93;;
11006;SDS011;8186;57.652;11.968;2024-01-30T06:47:43;20.27;;;9.60;;
11006;SDS011;8186;57.652;11.968;2024-01-30T06:50:10;15.47;;;9.40;;
11006;SDS011;8186;57.652;11.968;2024-01-30T06:52:37;17.37;;;9.83;;
11006;SDS011;8186;57.652;11.968;2024-01-30T06:55:03;25.13;;;10.80;;
11006;SDS011;8186;57.652;11.968;2024-01-30T06:57:32;18.00;;;9.90;;
11006;SDS011;8186;57.652;11.968;2024-01-30T06:59:59;20.80;;;10.63;;
11006;SDS011;8186;57.652;11.968;2024-01-30T07:02:26;18.40;;;10.07;;
11006;SDS011;8186;57.652;11.968;2024-01-30T07:04:53;20.97;;;11.53;;
11006;SDS011;8186;57.652;11.968;2024-01-30T07:07:19;18.60;;;10.10;;
11006;SDS011;8186;57.652;11.968;2024-01-30T07:09:46;20.27;;;9.67;;
11006;SDS011;8186;57.652;11.968;2024-01-30T07:12:17;21.67;;;10.83;;
11006;SDS011;8186;57.652;11.968;2024-01-30T07:14:46;22.97;;;10.10;;
11006;SDS011;8186;57.652;11.968;2024-01-30T07:17:12;18.73;;;10.10;;
11006;SDS011;8186;57.652;11.968;2024-01-30T07:19:39;17.43;;;9.60;;
11006;SDS011;8186;57.652;11.968;2024-01-30T07:22:06;15.77;;;9.27;;
11006;SDS011;8186;57.652;11.968;2024-01-30T07:24:33;14.70;;;9.10;;
11006;SDS011;8186;57.652;11.968;2024-01-30T07:27:00;16.47;;;9.30;;
11006;SDS011;8186;57.652;11.968;2024-01-30T07:29:27;13.80;;;8.00;;
11006;SDS011;8186;57.652;11.968;2024-01-30T07:31:55;12.97;;;8.17;;
11006;SDS011;8186;57.652;11.968;2024-01-30T07:34:22;14.17;;;7.83;;
11006;SDS011;8186;57.652;11.968;2024-01-30T07:36:48;13.30;;;7.63;;
11006;SDS011;8186;57.652;11.968;2024-01-30T07:39:15;13.43;;;8.20;;
11006;SDS011;8186;57.652;11.968;2024-01-30T07:41:42;13.90;;;7.53;;
11006;SDS011;8186;57.652;11.968;2024-01-30T07:44:09;14.90;;;7.17;;
11006;SDS011;8186;57.652;11.968;2024-01-30T07:46:36;12.67;;;7.53;;
11006;SDS011;8186;57.652;11.968;2024-01-30T07:49:04;13.07;;;7.97;;
11006;SDS011;8186;57.652;11.968;2024-01-30T07:51:31;14.20;;;7.63;;
11006;SDS011;8186;57.652;11.968;2024-01-30T07:53:58;17.63;;;9.53;;
11006;SDS011;8186;57.652;11.968;2024-01-30T07:56:25;19.70;;;9.23;;
11006;SDS011;8186;57.652;11.968;2024-01-30T07:58:51;16.03;;;9.03;;
11006;SDS011;8186;57.652;11.968;2024-01-30T08:01:18;17.40;;;9.23;;
11006;SDS011;8186;57.652;11.968;2024-01-30T08:03:45;14.83;;;9.10;;
11006;SDS011;8186;57.652;11.968;2024-01-30T08:06:13;12.77;;;8.50;;
11006;SDS011;8186;57.652;11.968;2024-01-30T08:08:40;12.83;;;8.63;;
11006;SDS011;8186;57.652;11.968;2024-01-30T08:11:07;15.20;;;9.27;;
11006;SDS011;8186;57.652;11.968;2024-01-30T08:13:33;16.27;;;9.17;;
11006;SDS011;8186;57.652;11.968;2024-01-30T08:16:00;16.43;;;9.03;;
11006;SDS011;8186;57.652;11.968;2024-01-30T08:18:27;15.27;;;9.30;;
11006;SDS011;8186;57.652;11.968;2024-01-30T08:20:54;16.47;;;8.63;;
11006;SDS011;8186;57.652;11.968;2024-01-30T08:23:22;18.77;;;9.00;;
11006;SDS011;8186;57.652;11.968;2024-01-30T08:25:48;13.03;;;7.57;;
11006;SDS011;8186;57.652;11.968;2024-01-30T08:28:15;13.67;;;8.17;;
11006;SDS011;8186;57.652;11.968;2024-01-30T08:30:42;11.93;;;7.33;;
11006;SDS011;8186;57.652;11.968;2024-01-30T08:33:08;14.30;;;8.47;;
11006;SDS011;8186;57.652;11.968;2024-01-30T08:35:35;12.07;;;7.73;;
11006;SDS011;8186;57.652;11.968;2024-01-30T08:38:03;13.90;;;7.87;;
11006;SDS011;8186;57.652;11.968;2024-01-30T08:40:31;15.47;;;8.20;;
11006;SDS011;8186;57.652;11.968;2024-01-30T08:42:58;13.60;;;7.93;;
11006;SDS011;8186;57.652;11.968;2024-01-30T08:45:25;10.93;;;6.60;;
11006;SDS011;8186;57.652;11.968;2024-01-30T08:47:51;12.37;;;7.53;;
11006;SDS011;8186;57.652;11.968;2024-01-30T08:50:18;11.27;;;6.83;;
11006;SDS011;8186;57.652;11.968;2024-01-30T08:52:45;10.43;;;6.47;;
11006;SDS011;8186;57.652;11.968;2024-01-30T08:55:12;10.37;;;6.80;;
11006;SDS011;8186;57.652;11.968;2024-01-30T08:57:40;10.30;;;6.90;;
11006;SDS011;8186;57.652;11.968;2024-01-30T09:00:07;10.30;;;6.40;;
11006;SDS011;8186;57.652;11.968;2024-01-30T09:02:35;11.33;;;6.47;;
11006;SDS011;8186;57.652;11.968;2024-01-30T09:05:02;9.60;;;7.43;;
11006;SDS011;8186;57.652;11.968;2024-01-30T09:07:29;10.27;;;7.40;;
11006;SDS011;8186;57.652;11.968;2024-01-30T09:09:56;13.30;;;7.90;;
11006;SDS011;8186;57.652;11.968;2024-01-30T09:12:23;14.70;;;8.10;;
11006;SDS011;8186;57.652;11.968;2024-01-30T09:14:51;13.37;;;9.07;;
11006;SDS011;8186;57.652;11.968;2024-01-30T09:17:17;14.07;;;8.93;;
11006;SDS011;8186;57.652;11.968;2024-01-30T09:19:46;12.63;;;9.20;;
11006;SDS011;8186;57.652;11.968;2024-01-30T09:22:12;16.77;;;10.10;;
11006;SDS011;8186;57.652;11.968;2024-01-30T09:24:39;17.33;;;9.60;;
11006;SDS011;8186;57.652;11.968;2024-01-30T09:27:06;14.70;;;9.40;;
11006;SDS011;8186;57.652;11.968;2024-01-30T09:29:33;14.90;;;9.93;;
11006;SDS011;8186;57.652;11.968;2024-01-30T09:32:03;14.73;;;9.60;;
11006;SDS011;8186;57.652;11.968;2024-01-30T09:34:30;17.70;;;9.70;;
11006;SDS011;8186;57.652;11.968;2024-01-30T09:36:58;17.40;;;10.17;;
11006;SDS011;8186;57.652;11.968;2024-01-30T09:39:26;14.73;;;9.73;;
11006;SDS011;8186;57.652;11.968;2024-01-30T09:41:55;13.87;;;9.37;;
11006;SDS011;8186;57.652;11.968;2024-01-30T09:44:26;15.43;;;9.00;;
11006;SDS011;8186;57.652;11.968;2024-01-30T09:46:55;16.33;;;9.43;;
11006;SDS011;8186;57.652;11.968;2024-01-30T09:49:25;17.13;;;10.13;;
11006;SDS011;8186;57.652;11.968;2024-01-30T09:51:52;14.27;;;8.63;;
11006;SDS011;8186;57.652;11.968;2024-01-30T09:54:19;12.83;;;8.40;;
11006;SDS011;8186;57.652;11.968;2024-01-30T09:56:47;17.00;;;8.93;;
11006;SDS011;8186;57.652;11.968;2024-01-30T09:59:14;14.57;;;8.50;;
11006;SDS011;8186;57.652;11.968;2024-01-30T10:01:41;13.03;;;8.33;;
11006;SDS011;8186;57.652;11.968;2024-01-30T10:04:09;13.83;;;8.83;;
11006;SDS011;8186;57.652;11.968;2024-01-30T10:06:37;11.53;;;7.63;;
11006;SDS011;8186;57.652;11.968;2024-01-30T10:09:04;13.20;;;8.07;;
11006;SDS011;8186;57.652;11.968;2024-01-30T10:11:30;13.63;;;7.80;;
11006;SDS011;8186;57.652;11.968;2024-01-30T10:13:57;10.97;;;7.67;;
11006;SDS011;8186;57.652;11.968;2024-01-30T10:16:24;11.53;;;8.00;;
11006;SDS011;8186;57.652;11.968;2024-01-30T10:18:51;14.80;;;8.23;;
11006;SDS011;8186;57.652;11.968;2024-01-30T10:21:17;10.63;;;7.07;;
11006;SDS011;8186;57.652;11.968;2024-01-30T10:23:46;10.63;;;6.87;;
11006;SDS011;8186;57.652;11.968;2024-01-30T10:26:12;10.27;;;6.63;;
11006;SDS011;8186;57.652;11.968;2024-01-30T10:28:39;11.70;;;7.60;;
11006;SDS011;8186;57.652;11.968;2024-01-30T10:31:06;9.63;;;6.90;;
11006;SDS011;8186;57.652;11.968;2024-01-30T10:33:33;11.00;;;6.97;;
11006;SDS011;8186;57.652;11.968;2024-01-30T10:36:00;11.27;;;6.63;;
11006;SDS011;8186;57.652;11.968;2024-01-30T10:38:28;9.67;;;6.60;;
11006;SDS011;8186;57.652;11.968;2024-01-30T10:40:58;10.30;;;7.23;;
11006;SDS011;8186;57.652;11.968;2024-01-30T10:43:27;11.30;;;6.77;;
11006;SDS011;8186;57.652;11.968;2024-01-30T10:45:57;13.00;;;7.57;;
11006;SDS011;8186;57.652;11.968;2024-01-30T10:48:31;10.03;;;6.37;;
11006;SDS011;8186;57.652;11.968;2024-01-30T10:50:59;9.87;;;7.13;;
11006;SDS011;8186;57.652;11.968;2024-01-30T10:53:26;11.10;;;7.67;;
11006;SDS011;8186;57.652;11.968;2024-01-30T10:55:53;12.03;;;7.37;;
11006;SDS011;8186;57.652;11.968;2024-01-30T10:58:22;15.93;;;8.10;;
11006;SDS011;8186;57.652;11.968;2024-01-30T11:00:49;11.40;;;7.33;;
11006;SDS011;8186;57.652;11.968;2024-01-30T11:03:17;12.67;;;7.23;;
11006;SDS011;8186;57.652;11.968;2024-01-30T11:05:48;10.97;;;7.43;;
11006;SDS011;8186;57.652;11.968;2024-01-30T11:08:22;13.87;;;7.53;;
11006;SDS011;8186;57.652;11.968;2024-01-30T11:10:49;13.63;;;7.87;;
11006;SDS011;8186;57.652;11.968;2024-01-30T11:13:16;12.23;;;8.17;;
11006;SDS011;8186;57.652;11.968;2024-01-30T11:15:48;15.70;;;7.90;;
11006;SDS011;8186;57.652;11.968;2024-01-30T11:18:22;15.13;;;8.13;;
11006;SDS011;8186;57.652;11.968;2024-01-30T11:20:49;18.97;;;8.83;;
11006;SDS011;8186;57.652;11.968;2024-01-30T11:23:16;16.57;;;8.77;;
11006;SDS011;8186;57.652;11.968;2024-01-30T11:25:43;17.03;;;9.10;;
11006;SDS011;8186;57.652;11.968;2024-01-30T11:28:12;16.70;;;8.27;;
11006;SDS011;8186;57.652;11.968;2024-01-30T11:30:41;14.80;;;8.50;;
11006;SDS011;8186;57.652;11.968;2024-01-30T11:33:10;16.23;;;8.90;;
11006;SDS011;8186;57.652;11.968;2024-01-30T11:35:38;21.33;;;9.00;;
11006;SDS011;8186;57.652;11.968;2024-01-30T11:38:06;17.80;;;9.60;;
11006;SDS011;8186;57.652;11.968;2024-01-30T11:40:34;19.57;;;9.70;;
11006;SDS011;8186;57.652;11.968;2024-01-30T11:43:02;19.43;;;9.90;;
11006;SDS011;8186;57.652;11.968;2024-01-30T11:45:30;19.47;;;9.47;;
11006;SDS011;8186;57.652;11.968;2024-01-30T11:47:57;17.37;;;9.70;;
11006;SDS011;8186;57.652;11.968;2024-01-30T11:50:26;19.20;;;9.20;;
11006;SDS011;8186;57.652;11.968;2024-01-30T11:52:53;18.27;;;9.33;;
11006;SDS011;8186;57.652;11.968;2024-01-30T11:55:20;16.77;;;9.13;;
11006;SDS011;8186;57.652;11.968;2024-01-30T11:57:47;21.23;;;9.23;;
11006;SDS011;8186;57.652;11.968;2024-01-30T12:00:14;18.33;;;9.83;;
11006;SDS011;8186;57.652;11.968;2024-01-30T12:02:42;15.33;;;7.97;;
11006;SDS011;8186;57.652;11.968;2024-01-30T12:05:09;16.20;;;8.80;;
11006;SDS011;8186;57.652;11.968;2024-01-30T12:07:37;14.37;;;7.43;;
11006;SDS011;8186;57.652;11.968;2024-01-30T12:10:04;15.53;;;7.67;;
11006;SDS011;8186;57.652;11.968;2024-01-30T12:12:33;13.57;;;7.20;;
11006;SDS011;8186;57.652;11.968;2024-01-30T12:15:00;12.83;;;7.73;;
11006;SDS011;8186;57.652;11.968;2024-01-30T12:17:28;18.60;;;8.60;;
11006;SDS011;8186;57.652;11.968;2024-01-30T12:20:05;17.93;;;9.53;;
11006;SDS011;8186;57.652;11.968;2024-01-30T12:22:33;18.90;;;9.30;;
11006;SDS011;8186;57.652;11.968;2024-01-30T12:25:04;21.10;;;10.00;;
11006;SDS011;8186;57.652;11.968;2024-01-30T12:27:31;31.67;;;10.27;;
11006;SDS011;8186;57.652;11.968;2024-01-30T12:29:58;23.43;;;10.97;;
11006;SDS011;8186;57.652;11.968;2024-01-30T12:32:25;30.00;;;11.23;;
11006;SDS011;8186;57.652;11.968;2024-01-30T12:34:54;31.83;;;10.80;;
11006;SDS011;8186;57.652;11.968;2024-01-30T12:37:21;35.40;;;11.63;;
11006;SDS011;8186;57.652;11.968;2024-01-30T12:39:51;33.27;;;11.83;;
11006;SDS011;8186;57.652;11.968;2024-01-30T12:42:19;44.43;;;11.80;;
11006;SDS011;8186;57.652;11.968;2024-01-30T12:44:46;29.50;;;11.13;;
11006;SDS011;8186;57.652;11.968;2024-01-30T12:47:13;30.80;;;11.13;;
11006;SDS011;8186;57.652;11.968;2024-01-30T12:49:41;23.87;;;10.17;;
11006;SDS011;8186;57.652;11.968;2024-01-30T12:52:08;29.57;;;11.93;;
11006;SDS011;8186;57.652;11.968;2024-01-30T12:54:35;30.40;;;11.47;;
11006;SDS011;8186;57.652;11.968;2024-01-30T12:57:03;25.47;;;11.23;;
11006;SDS011;8186;57.652;11.968;2024-01-30T12:59:30;27.43;;;12.53;;
11006;SDS011;8186;57.652;11.968;2024-01-30T13:01:58;29.00;;;12.00;;
11006;SDS011;8186;57.652;11.968;2024-01-30T13:04:26;28.23;;;13.20;;
11006;SDS011;8186;57.652;11.968;2024-01-30T13:06:53;29.10;;;14.17;;
11006;SDS011;8186;57.652;11.968;2024-01-30T13:09:20;25.37;;;12.00;;
11006;SDS011;8186;57.652;11.968;2024-01-30T13:11:47;27.70;;;13.33;;
11006;SDS011;8186;57.652;11.968;2024-01-30T13:14:15;27.27;;;13.97;;
11006;SDS011;8186;57.652;11.968;2024-01-30T13:16:42;27.97;;;15.37;;
11006;SDS011;8186;57.652;11.968;2024-01-30T13:19:08;29.40;;;14.50;;
11006;SDS011;8186;57.652;11.968;2024-01-30T13:21:35;24.00;;;14.23;;
11006;SDS011;8186;57.652;11.968;2024-01-30T13:24:02;24.03;;;13.30;;
11006;SDS011;8186;57.652;11.968;2024-01-30T13:26:31;23.37;;;13.27;;
11006;SDS011;8186;57.652;11.968;2024-01-30T13:28:58;22.90;;;12.83;;
11006;SDS011;8186;57.652;11.968;2024-01-30T13:31:26;20.87;;;12.40;;
11006;SDS011;8186;57.652;11.968;2024-01-30T13:33:53;19.70;;;13.00;;
11006;SDS011;8186;57.652;11.968;2024-01-30T13:36:20;19.47;;;13.27;;
11006;SDS011;8186;57.652;11.968;2024-01-30T13:38:47;21.20;;;12.53;;
11006;SDS011;8186;57.652;11.968;2024-01-30T13:41:14;21.77;;;12.17;;
11006;SDS011;8186;57.652;11.968;2024-01-30T13:43:42;18.43;;;12.07;;
11006;SDS011;8186;57.652;11.968;2024-01-30T13:46:09;18.17;;;12.10;;
11006;SDS011;8186;57.652;11.968;2024-01-30T13:48:38;18.53;;;12.80;;
11006;SDS011;8186;57.652;11.968;2024-01-30T13:51:04;19.73;;;12.60;;
11006;SDS011;8186;57.652;11.968;2024-01-30T13:53:31;19.70;;;12.30;;
11006;SDS011;8186;57.652;11.968;2024-01-30T13:55:58;19.27;;;12.27;;
11006;SDS011;8186;57.652;11.968;2024-01-30T13:58:25;17.00;;;11.73;;
11006;SDS011;8186;57.652;11.968;2024-01-30T14:00:52;16.07;;;11.73;;
11006;SDS011;8186;57.652;11.968;2024-01-30T14:03:19;18.60;;;12.50;;
11006;SDS011;8186;57.652;11.968;2024-01-30T14:05:47;23.20;;;13.90;;
11006;SDS011;8186;57.652;11.968;2024-01-30T14:08:15;14.80;;;11.83;;
11006;SDS011;8186;57.652;11.968;2024-01-30T14:10:41;17.77;;;11.90;;
11006;SDS011;8186;57.652;11.968;2024-01-30T14:13:09;17.67;;;11.90;;
11006;SDS011;8186;57.652;11.968;2024-01-30T14:15:36;14.60;;;10.60;;
11006;SDS011;8186;57.652;11.968;2024-01-30T14:18:03;15.80;;;11.97;;
11006;SDS011;8186;57.652;11.968;2024-01-30T14:20:33;14.07;;;11.33;;
11006;SDS011;8186;57.652;11.968;2024-01-30T14:23:01;15.33;;;11.40;;
11006;SDS011;8186;57.652;11.968;2024-01-30T14:25:28;13.53;;;10.27;;
11006;SDS011;8186;57.652;11.968;2024-01-30T14:27:55;15.90;;;10.87;;